Bodega Marine Reserve, California Weather observations

Data are for 10 minute period ending at time listed.
 Day   Time   Solar   Ave.   Ave.  Ave.  Vector  Max.   Baro.   Total    
  of    of     Rad.   Air    Rel.  Wind   Wind   Wind  Press.  Precip.   
Year   Day            Temp.  Hum.  Speed  Dir.   Gust                    
2016   (PST)  Kw/m2    F      %     mph   deg.    mph    mb.     in.     
-------------------------------------------------------------------------
  42    7:10   0.00   51.7    92    2.8    91     3.3   1016.9    0.00 
  42    7:20   0.00   52.1    93    3.8   127     7.4   1016.9    0.00 
  42    7:30   0.00   53.0    92    3.9   129     6.6   1017.3    0.00 
  42    7:40   0.00   53.8    91    4.3   131     6.4   1016.9    0.00 
  42    7:50   0.00   54.8    88    4.3   113     8.2   1016.9    0.00 
  42    8:00   0.00   55.0    85    4.8   124     8.3   1017.3    0.00 
  42    8:10   0.00   54.1    84    5.5   123     8.7   1016.9    0.00 
  42    8:20   0.00   53.7    84    6.4   136     9.8   1016.9    0.00 
  42    8:30   0.01   53.1    85    7.2   141     9.6   1017.3    0.00 
  42    8:40   0.03   53.9    84    6.3   114    10.1   1017.3    0.00 
  42    8:50   0.03   55.5    78    6.6   100    10.6   1017.3    0.00 
  42    9:00   0.03   56.2    74    5.8   105     9.2   1017.3    0.00 
  42    9:10   0.06   56.4    73    7.1   119    12.0   1017.6    0.00 
  42    9:20   0.12   55.3    79    4.3   156     6.6   1017.6    0.00 
  42    9:30   0.10   56.9    77    2.0   251     4.2   1018.0    0.00 
  42    9:40   0.11   57.0    76    2.7   216     4.5   1018.0    0.00 
  42    9:50   0.13   56.8    75    2.8   130     5.3   1018.0    0.00 
  42   10:00   0.21   58.7    74    1.6     8     4.1   1018.3    0.00 
  42   10:10   0.21   60.1    72    3.3   342     4.5   1018.3    0.00 
  42   10:20   0.22   59.8    74    4.3   287     8.0   1018.6    0.00 
  42   10:30   0.28   58.8    78    5.0   288     7.8   1019.0    0.00 
  42   10:40   0.31   60.0    76    3.8   281     5.9   1019.0    0.00 
  42   10:50   0.34   62.3    67    3.6    80     5.4   1018.6    0.00 
  42   11:00   0.37   63.1    64    3.9   151     6.8   1019.0    0.00 
  42   11:10   0.38   63.1    65    4.3   147     6.2   1019.0    0.00 
  42   11:20   0.38   62.7    63    5.7   140     8.8   1019.0    0.00 
  42   11:30   0.41   63.1    62    4.5   152     6.3   1019.3    0.00 
  42   11:40   0.30   62.5    63    6.0   130     8.1   1019.0    0.00 
  42   11:50   0.33   61.6    67    6.6   135     8.0   1019.0    0.00 
  42   12:00   0.40   62.8    64    3.9   116     6.5   1018.6    0.00 
  42   12:10   0.56   65.2    59    4.6   112     8.4   1018.6    0.00 
  42   12:20   0.56   66.3    56    5.5   112     9.8   1018.3    0.00 
  42   12:30   0.40   66.8    53    8.9   101    13.1   1018.3    0.00 
  42   12:40   0.32   66.1    54    7.5   103    13.4   1018.3    0.00 
  42   12:50   0.23   65.5    55    5.4   118     9.5   1018.3    0.00 
  42   13:00   0.20   64.4    59    4.8   124     8.3   1018.3    0.00 
  42   13:10   0.27   65.1    58    5.0   107     8.3   1018.3    0.00 
  42   13:20   0.35   65.7    57    5.4   100     8.3   1018.3    0.00 
  42   13:30   0.47   66.5    57    4.1   128     7.0   1018.0    0.00 
  42   13:40   0.37   66.5    57    4.2   147     5.9   1018.0    0.00 
  42   13:50   0.34   66.6    57    4.2   148     5.3   1018.0    0.00 
  42   14:00   0.36   66.9    56    4.2   150     5.5   1018.0    0.00 
  42   14:10   0.43   67.4    56    4.0   151     5.3   1018.0    0.00 
  42   14:20   0.45   67.6    56    3.9   144     4.7   1018.0    0.00 
  42   14:30   0.54   67.9    56    4.4   145     5.8   1017.6    0.00 
  42   14:40   0.59   68.7    54    5.1   150     6.0   1017.6    0.00 
  42   14:50   0.50   69.3    54    4.5   152     6.4   1017.3    0.00 
  42   15:00   0.42   69.2    54    3.4   147     4.9   1017.3    0.00 
  42   15:10   0.40   68.7    55    4.0   158     5.6   1017.3    0.00 
  42   15:20   0.38   69.5    54    4.8   202     6.1   1017.3    0.00 
  42   15:30   0.43   70.3    54    5.6   218     8.6   1017.3    0.00 
  42   15:40   0.38   67.7    60   10.6   236    15.2   1017.6    0.00 
  42   15:50   0.41   61.8    75   11.0   279    15.3   1018.0    0.00 
  42   16:00   0.35   60.6    77   10.3   302    14.7   1018.0    0.00 
  42   16:10   0.33   60.5    77    7.4   322    10.4   1018.0    0.00 
  42   16:20   0.33   60.8    76    6.6   327     8.7   1018.0    0.00 
  42   16:30   0.26   60.9    73    6.4   313     8.9   1018.0    0.00 
  42   16:40   0.12   60.1    75    6.7   292    10.7   1018.0    0.00 
  42   16:50   0.12   58.9    77    6.3   298    10.2   1018.0    0.00 
  42   17:00   0.24   59.1    77    6.8   302     9.3   1018.0    0.00 
  42   17:10   0.31   60.9    72    3.0   306     6.0   1018.0    0.00 
  42   17:20   0.27   61.5    72    7.1   276     9.9   1018.0    0.00 
  42   17:30   0.17   59.2    79    6.8   275     9.4   1018.3    0.00 
  42   17:40   0.11   58.3    81    6.6   296     8.2   1018.3    0.00 
  42   17:50   0.07   57.8    83    5.4   292     7.2   1018.3    0.00 
  42   18:00   0.07   57.3    85    6.5   287     9.6   1018.3    0.00 
  42   18:10   0.06   56.5    86    6.4   292     9.1   1018.3    0.00 
  42   18:20   0.04   56.2    87    4.8   303     6.7   1018.3    0.00 
  42   18:30   0.03   55.8    87    6.4   298     8.5   1018.3    0.00 
  42   18:40   0.01   55.3    88    8.2   301     9.9   1018.6    0.00 
  42   18:50   0.00   55.0    89    7.4   310    10.3   1018.3    0.00 
  42   19:00   0.00   54.8    89    6.1   314     9.1   1018.3    0.00 
  42   19:10   0.00   54.3    90    5.4   308     7.0   1018.0    0.00 
  42   19:20   0.00   53.9    90    7.0   302     9.3   1018.0    0.00 
  42   19:30   0.00   53.9    91    5.9   309     8.5   1018.0    0.00 
  42   19:40   0.00   53.8    91    7.0   301     9.3   1018.3    0.00 
  42   19:50   0.00   53.9    92    8.3   289    11.7   1018.3    0.00 
  42   20:00   0.00   53.8    92    9.1   286    12.2   1018.6    0.00 
  42   20:10   0.00   53.2    93    7.5   300     9.8   1018.6    0.00 
  42   20:20   0.00   53.2    93    6.6   312     9.8   1018.6    0.00 
  42   20:30   0.00   53.2    93    7.8   294     9.9   1018.6    0.00 
  42   20:40   0.00   53.3    93    7.5   299    10.3   1018.6    0.00 
  42   20:50   0.00   52.8    93    6.6   298     9.1   1018.6    0.00 
  42   21:00   0.00   52.9    94    7.5   289     9.2   1018.6    0.00 
  42   21:10   100.00  99999.0   99999  99999.0   99999   99999.0   99999.0   99999.00 
  42   21:20   100.00  99999.0   99999  99999.0   99999   99999.0   99999.0   99999.00 
  42   21:30   100.00  99999.0   99999  99999.0   99999   99999.0   99999.0   99999.00 
  42   21:40   100.00  99999.0   99999  99999.0   99999   99999.0   99999.0   99999.00 
  42   21:50   100.00  99999.0   99999  99999.0   99999   99999.0   99999.0   99999.00 
  42   22:00   100.00  99999.0   99999  99999.0   99999   99999.0   99999.0   99999.00 
  42   22:10   0.00   52.4    94    8.4   296    10.1   1019.3    0.00 
  42   22:20   0.00   51.9    94    7.4   302     9.7   1019.3    0.00 
  42   22:30   0.00   51.9    94    7.3   308     9.6   1019.3    0.00 
  42   22:40   0.00   52.1    94    7.1   310     8.8   1019.3    0.00 
  42   22:50   0.00   52.1    94    7.2   300     9.3   1019.3    0.00 
  42   23:00   0.00   52.4    95    9.7   298    11.7   1019.6    0.00 
  42   23:10   0.00   53.2    95   10.6   304    15.6   1019.6    0.00 
  42   23:20   0.00   53.6    94   12.2   310    15.9   1019.6    0.00 
  42   23:30   0.00   53.4    94   11.2   304    14.5   1019.6    0.00 
  42   23:40   0.00   53.4    94   11.6   306    17.1   1019.3    0.00 
  42   23:50   0.00   53.5    94   11.8   310    16.5   1019.6    0.00 
  43    0:00   0.00   53.7    94   10.9   306    14.0   1019.6    0.00 
  43    0:10   0.00   53.4    94    9.7   304    13.4   1019.3    0.00 
  43    0:20   0.00   53.0    94    7.2   304     9.5   1019.3    0.00 
  43    0:30   0.00   52.8    94    6.7   305     8.6   1019.3    0.00 
  43    0:40   0.00   52.9    95    7.0   304     8.7   1019.6    0.00 
  43    0:50   0.00   52.9    95    5.7   311     8.2   1019.6    0.00 
  43    1:00   0.00   53.1    95    5.0   322     7.4   1019.3    0.00 
  43    1:10   0.00   52.7    94    3.1   308     4.9   1019.6    0.00 
  43    1:20   0.00   52.3    94    0.9   348     2.9   1019.3    0.00 
  43    1:30   0.00   52.0    94    0.2   220     1.1   1019.3    0.00 
  43    1:40   0.00   50.8    94    1.3   123     2.0   1019.3    0.00 
  43    1:50   0.00   51.3    95    2.4   135     3.4   1019.3    0.00 
  43    2:00   0.00   50.9    94    2.8   166     3.4   1019.3    0.00 
  43    2:10   0.00   50.1    94    3.0   226     5.4   1019.3    0.00 
  43    2:20   0.00   48.6    95    2.0   357     2.5   1019.3    0.00 
  43    2:30   0.00   49.4    95    1.1   346     2.0   1019.3    0.00 
  43    2:40   0.00   50.1    95    0.3    88     1.3   1019.3    0.00 
  43    2:50   0.00   49.0    94    0.2    23     1.6   1019.3    0.00 
  43    3:00   0.00   49.3    96    0.3    35     1.5   1019.3    0.00 
  43    3:10   0.00   50.1    95    0.0    96     0.5   1019.3    0.00 
  43    3:20   0.00   49.6    95    0.8   131     1.9   1019.3    0.00 
  43    3:30   0.00   50.3    95    1.0   135     1.8   1019.3    0.00 
  43    3:40   0.00   50.7    95    1.7   155     2.3   1019.3    0.00 
  43    3:50   0.00   50.8    95    0.6   103     1.4   1019.3    0.00 
  43    4:00   0.00   51.0    95    0.7    93     1.8   1019.3    0.00 
  43    4:10   0.00   51.4    95    1.0   219     2.6   1019.3    0.00 
  43    4:20   0.00   51.1    95    0.2   280     1.0   1019.3    0.00 
  43    4:30   0.00   50.7    95    0.5   350     0.9   1019.3    0.00 
  43    4:40   0.00   50.3    95    1.0   355     1.3   1019.3    0.00 
  43    4:50   0.00   50.5    95    0.7    22     1.6   1019.3    0.00 
  43    5:00   0.00   51.0    96    1.8   319     4.8   1019.6    0.00 
  43    5:10   0.00   51.1    95    2.3   302     4.7   1019.6    0.00 
  43    5:20   0.00   51.1    96    6.6   296     8.5   1019.6    0.00 
  43    5:30   0.00   50.8    95    6.2   303     7.4   1019.6    0.00 
  43    5:40   0.00   50.2    95    6.3   310     7.7   1019.3    0.00 
  43    5:50   0.00   50.0    95    4.1   322     7.5   1019.3    0.00 
  43    6:00   0.00   49.3    95    0.8    30     2.2   1019.3    0.00 
  43    6:10   0.00   48.8    95    0.3    20     1.5   1019.3    0.00 
  43    6:20   0.00   48.6    95    0.3   132     1.7   1019.3    0.00 
  43    6:30   0.00   48.5    95    2.2   164     2.6   1019.3    0.00 
  43    6:40   0.00   48.9    96    2.3   166     2.9   1019.6    0.00 
  43    6:50   0.00   48.3    95    0.6   155     2.2   1019.6    0.00 
  43    7:00   0.00   48.1    96    0.6   123     1.8   1019.6    0.00 

Return to Bodega Marine Reserve graphs page.


Western Regional Climate Center,wrcc@dri.edu